Time;durP1;ratioP1;P1;durP2;ratioP2;P2;SDS_P1;SDS_P2;PMS_P1;PMS_P2;Temp;Humidity;BMP_temperature;BMP_pressure;BME280_temperature;BME280_humidity;BME280_pressure;Samples;Min_cycle;Max_cycle;Signal;HPM_P1;HPM_P2
2021/01/21 00:01:13;;;;;;;4.50;1.40;;;8.90;99.90;;;;;;5056000;28;20201;-66
2021/01/21 00:03:38;;;;;;;2.17;1.70;;;8.90;99.90;;;;;;5054511;28;20636;-65
2021/01/21 00:06:04;;;;;;;1.90;1.53;;;8.80;99.90;;;;;;5055509;28;20254;-64
2021/01/21 00:08:29;;;;;;;4.07;2.37;;;8.90;99.90;;;;;;5055604;28;20189;-65
2021/01/21 00:10:55;;;;;;;3.17;1.80;;;8.80;99.90;;;;;;5055726;28;20256;-65
2021/01/21 00:13:21;;;;;;;2.50;2.07;;;8.80;99.90;;;;;;5055279;28;20177;-65
2021/01/21 00:15:47;;;;;;;2.07;1.77;;;8.70;99.90;;;;;;5055740;28;20428;-66
2021/01/21 00:18:12;;;;;;;1.30;1.20;;;8.70;99.90;;;;;;5055297;28;20256;-63
2021/01/21 00:20:38;;;;;;;4.20;1.70;;;8.60;99.90;;;;;;5055453;28;20526;-65
2021/01/21 00:23:03;;;;;;;3.00;2.00;;;8.60;99.90;;;;;;5055169;28;20216;-65
2021/01/21 00:25:29;;;;;;;1.63;1.33;;;8.50;1.00;;;;;;5055530;28;20239;-67
2021/01/21 00:27:54;;;;;;;3.07;1.77;;;8.50;1.00;;;;;;5070970;28;20629;-67
2021/01/21 00:30:20;;;;;;;1.30;1.20;;;8.50;1.00;;;;;;5055157;28;20614;-67
2021/01/21 00:32:46;;;;;;;4.30;1.90;;;8.50;1.00;;;;;;5054715;28;20214;-67
2021/01/21 00:35:13;;;;;;;4.73;1.70;;;8.40;1.00;;;;;;5054897;28;20188;-68
2021/01/21 00:37:39;;;;;;;3.53;1.98;;;8.40;1.00;;;;;;5054154;28;20174;-67
2021/01/21 00:40:05;;;;;;;3.03;1.83;;;8.40;1.00;;;;;;5055027;28;20239;-68
2021/01/21 00:42:32;;;;;;;2.30;2.10;;;8.50;1.00;;;;;;5054850;28;20267;-67
2021/01/21 00:44:58;;;;;;;2.03;1.80;;;8.50;1.00;;;;;;5054962;28;20182;-67
2021/01/21 00:47:24;;;;;;;2.47;2.05;;;8.40;1.00;;;;;;5054830;28;20185;-67
2021/01/21 00:49:50;;;;;;;3.63;1.60;;;8.50;1.00;;;;;;5054801;28;20182;-67
2021/01/21 00:52:15;;;;;;;1.57;1.47;;;8.40;1.00;;;;;;5054908;28;20500;-63
2021/01/21 00:54:41;;;;;;;6.00;1.73;;;8.40;1.00;;;;;;5054546;28;20185;-65
2021/01/21 00:57:06;;;;;;;6.27;3.37;;;8.30;1.00;;;;;;5054773;28;20188;-64
2021/01/21 00:59:32;;;;;;;3.90;3.40;;;8.30;1.00;;;;;;5054690;28;20182;-64
2021/01/21 01:02:00;;;;;;;3.33;2.30;;;8.40;1.00;;;;;;5054659;28;20200;-66
2021/01/21 01:04:25;;;;;;;4.82;2.08;;;8.50;1.00;;;;;;5054778;28;20558;-62
2021/01/21 01:06:51;;;;;;;3.97;1.97;;;8.40;1.00;;;;;;5053808;28;20274;-64
2021/01/21 01:09:16;;;;;;;2.23;1.80;;;8.50;1.00;;;;;;5054448;28;20188;-62
2021/01/21 01:11:42;;;;;;;2.03;1.80;;;8.40;1.00;;;;;;5054589;28;20262;-65
2021/01/21 01:14:07;;;;;;;2.67;2.47;;;8.40;1.00;;;;;;5054232;28;20173;-62
2021/01/21 01:16:33;;;;;;;2.90;2.00;;;8.30;1.00;;;;;;5054153;28;20228;-62
2021/01/21 01:18:59;;;;;;;4.97;1.90;;;8.30;3.50;;;;;;5054126;28;20177;-62
2021/01/21 01:21:24;;;;;;;2.57;1.97;;;8.30;26.80;;;;;;5054211;28;20251;-62
2021/01/21 01:23:51;;;;;;;5.80;1.60;;;8.30;45.60;;;;;;5053911;28;20675;-62
2021/01/21 01:26:20;;;;;;;2.70;1.25;;;8.30;95.70;;;;;;5054161;28;20277;-64
2021/01/21 01:28:46;;;;;;;2.20;1.58;;;8.30;92.90;;;;;;5054110;28;20506;-63
2021/01/21 01:31:11;;;;;;;3.17;2.17;;;8.20;99.90;;;;;;5054012;28;20208;-62
2021/01/21 01:33:37;;;;;;;7.83;2.93;;;8.30;95.00;;;;;;5052636;28;20734;-62
2021/01/21 01:36:03;;;;;;;2.53;2.33;;;8.20;99.90;;;;;;5053019;28;20173;-62
2021/01/21 01:38:29;;;;;;;4.15;1.40;;;8.30;79.20;;;;;;5053776;28;20682;-62
2021/01/21 01:40:54;;;;;;;2.13;1.63;;;8.30;38.70;;;;;;5053802;28;20205;-63
2021/01/21 01:43:20;;;;;;;1.80;1.70;;;8.30;99.90;;;;;;5052604;28;20523;-63
2021/01/21 01:45:45;;;;;;;2.50;1.77;;;8.40;95.70;;;;;;5053685;28;20185;-63
2021/01/21 01:48:11;;;;;;;5.10;2.10;;;8.40;72.50;;;;;;5052678;28;20631;-64
2021/01/21 01:50:38;;;;;;;2.97;1.87;;;8.40;15.60;;;;;;5053750;28;20185;-64
2021/01/21 01:53:05;;;;;;;2.67;2.38;;;8.40;34.00;;;;;;5052789;28;20220;-64
2021/01/21 01:55:31;;;;;;;2.85;1.80;;;8.40;21.20;;;;;;5053768;28;20258;-63
2021/01/21 01:57:57;;;;;;;2.65;1.50;;;8.40;42.30;;;;;;5053708;28;20574;-64
2021/01/21 02:00:22;;;;;;;2.03;1.30;;;8.40;3.10;;;;;;5053563;28;20618;-64
2021/01/21 02:02:49;;;;;;;1.80;1.60;;;8.30;34.60;;;;;;5053517;28;20489;-63
2021/01/21 02:05:16;;;;;;;2.05;1.55;;;8.30;19.30;;;;;;5052558;28;20694;-64
2021/01/21 02:07:43;;;;;;;2.42;1.60;;;8.40;1.00;;;;;;5053586;28;20177;-63
2021/01/21 02:10:10;;;;;;;2.17;1.88;;;8.40;1.00;;;;;;5053581;28;20210;-64
2021/01/21 02:12:39;;;;;;;2.50;1.90;;;8.40;1.00;;;;;;5053439;28;20219;-64
2021/01/21 02:15:04;;;;;;;5.85;2.08;;;8.40;1.00;;;;;;5053184;28;20177;-65
2021/01/21 02:17:38;;;;;;;2.77;1.73;;;8.40;1.00;;;;;;5053332;28;20264;-64
2021/01/21 02:20:28;;;;;;;1.70;1.30;;;8.40;1.00;;;;;;5057281;28;20192;-64
2021/01/21 02:23:12;;;;;;;1.45;1.25;;;8.50;1.00;;;;;;5057495;28;20181;-63
2021/01/21 02:25:51;;;;;;;2.45;1.48;;;8.40;1.00;;;;;;5057470;28;20189;-63
2021/01/21 02:28:45;;;;;;;2.22;1.40;;;8.40;1.00;;;;;;5057483;28;20231;-63
2021/01/21 02:31:41;;;;;;;1.65;1.35;;;8.50;1.00;;;;;;5057351;28;20216;-62
2021/01/21 02:34:09;;;;;;;2.50;1.27;;;8.40;1.00;;;;;;5072822;28;20204;-63
2021/01/21 02:36:43;;;;;;;3.05;1.33;;;8.50;1.00;;;;;;5056520;28;20192;-64
2021/01/21 02:39:10;;;;;;;1.70;1.40;;;8.50;1.00;;;;;;5056610;28;20219;-66
2021/01/21 02:41:37;;;;;;;2.45;1.63;;;8.50;1.00;;;;;;5057263;28;20605;-64
2021/01/21 02:44:03;;;;;;;4.45;1.90;;;8.60;1.00;;;;;;5057172;28;20185;-64
2021/01/21 02:46:28;;;;;;;7.17;2.20;;;8.50;1.00;;;;;;5057097;28;20181;-65
2021/01/21 02:48:56;;;;;;;1.67;1.37;;;8.40;1.00;;;;;;5057149;28;20419;-63
2021/01/21 02:51:46;;;;;;;1.88;1.60;;;8.40;1.00;;;;;;5056947;28;20235;-63
2021/01/21 02:54:20;;;;;;;5.50;1.70;;;8.40;1.00;;;;;;5056834;28;20174;-65
2021/01/21 02:56:46;;;;;;;3.25;1.45;;;8.50;1.00;;;;;;5056986;28;20184;-64
2021/01/21 02:59:16;;;;;;;4.30;1.67;;;8.50;1.00;;;;;;5056775;28;20260;-65
2021/01/21 03:01:45;;;;;;;2.72;1.70;;;8.40;1.00;;;;;;5057032;28;20215;-64
2021/01/21 03:04:11;;;;;;;2.92;1.25;;;8.40;1.00;;;;;;5056574;28;20190;-63
2021/01/21 03:06:39;;;;;;;2.65;1.52;;;8.40;1.00;;;;;;5056726;28;20188;-63
2021/01/21 03:09:05;;;;;;;2.50;1.70;;;8.40;1.00;;;;;;5056637;28;20189;-63
2021/01/21 03:11:31;;;;;;;1.95;1.20;;;8.40;1.00;;;;;;5056582;28;20211;-63
2021/01/21 03:13:56;;;;;;;2.20;1.30;;;8.50;1.00;;;;;;5056406;28;20185;-63
2021/01/21 03:16:22;;;;;;;2.40;1.50;;;8.50;1.00;;;;;;5056573;28;20468;-63
2021/01/21 03:18:50;;;;;;;4.77;1.50;;;8.50;1.00;;;;;;5056670;28;20181;-63
2021/01/21 03:21:18;;;;;;;1.85;1.58;;;8.50;1.00;;;;;;5056418;28;20730;-63
2021/01/21 03:23:45;;;;;;;1.55;1.27;;;8.60;1.00;;;;;;5056182;28;20629;-63
2021/01/21 03:26:11;;;;;;;3.10;1.80;;;8.70;1.00;;;;;;5055608;28;20262;-63
2021/01/21 03:28:37;;;;;;;1.83;1.33;;;8.70;1.00;;;;;;5056280;28;20222;-63
2021/01/21 03:31:02;;;;;;;2.97;1.70;;;8.70;1.00;;;;;;5055217;28;20201;-63
2021/01/21 03:33:28;;;;;;;2.60;1.43;;;8.70;1.00;;;;;;5055053;28;20633;-63
2021/01/21 03:35:53;;;;;;;4.20;1.63;;;8.80;1.00;;;;;;5056180;28;20269;-63
2021/01/21 03:38:19;;;;;;;2.00;1.20;;;8.70;1.00;;;;;;5056124;28;20174;-65
2021/01/21 03:40:44;;;;;;;3.30;1.93;;;8.70;1.00;;;;;;5056114;28;20235;-65
2021/01/21 03:43:10;;;;;;;2.90;1.73;;;8.80;1.00;;;;;;5055875;28;20737;-65
2021/01/21 03:45:36;;;;;;;3.10;1.60;;;8.80;1.00;;;;;;5056046;28;20618;-65
2021/01/21 03:48:01;;;;;;;2.30;1.30;;;8.80;1.00;;;;;;5056122;28;20315;-65
2021/01/21 03:50:27;;;;;;;1.57;1.20;;;8.80;1.00;;;;;;5055910;28;20908;-64
2021/01/21 03:52:52;;;;;;;1.93;1.40;;;8.80;99.90;;;;;;5055886;28;20219;-65
2021/01/21 03:55:18;;;;;;;1.50;1.23;;;8.80;99.90;;;;;;5055565;28;20249;-64
2021/01/21 03:57:43;;;;;;;2.00;1.40;;;8.90;99.90;;;;;;5055773;28;20177;-64
2021/01/21 04:00:10;;;;;;;2.10;1.37;;;8.80;99.90;;;;;;5055744;28;20212;-65
2021/01/21 04:02:35;;;;;;;3.53;1.45;;;8.80;1.00;;;;;;5055663;28;20242;-65
2021/01/21 04:05:01;;;;;;;2.63;1.80;;;8.80;99.90;;;;;;5055537;28;20185;-65
2021/01/21 04:07:26;;;;;;;2.47;1.50;;;8.80;99.90;;;;;;5055823;28;20204;-64
2021/01/21 04:09:52;;;;;;;2.70;1.60;;;8.80;99.90;;;;;;5054504;28;20190;-64
2021/01/21 04:12:17;;;;;;;6.53;1.57;;;8.80;99.90;;;;;;5055598;28;20213;-64
2021/01/21 04:14:43;;;;;;;1.77;1.37;;;8.80;99.90;;;;;;5055420;28;20183;-64
2021/01/21 04:17:09;;;;;;;1.90;1.40;;;8.80;99.90;;;;;;5055427;28;20192;-65
2021/01/21 04:19:34;;;;;;;2.17;1.47;;;8.70;1.00;;;;;;5055370;28;20493;-64
2021/01/21 04:22:00;;;;;;;3.60;1.63;;;8.70;1.00;;;;;;5055478;28;20687;-66
2021/01/21 04:24:25;;;;;;;2.67;1.63;;;8.70;1.00;;;;;;5055002;28;20178;-67
2021/01/21 04:26:51;;;;;;;2.40;1.40;;;8.70;1.00;;;;;;5055500;28;20293;-64
2021/01/21 04:29:16;;;;;;;3.43;1.43;;;8.70;1.00;;;;;;5055191;28;20193;-65
2021/01/21 04:31:42;;;;;;;1.70;1.30;;;8.70;99.90;;;;;;5055131;28;20203;-65
2021/01/21 04:34:07;;;;;;;1.83;1.53;;;8.70;1.00;;;;;;5055027;28;20185;-65
2021/01/21 04:36:33;;;;;;;5.30;1.53;;;8.70;99.90;;;;;;5055330;28;20183;-65
2021/01/21 04:38:58;;;;;;;2.13;1.13;;;8.70;99.90;;;;;;5055066;28;20271;-65
2021/01/21 04:41:24;;;;;;;3.80;1.47;;;8.70;99.90;;;;;;5055234;28;20264;-64
2021/01/21 04:43:50;;;;;;;1.55;1.45;;;8.80;99.90;;;;;;5055245;28;20189;-65
2021/01/21 04:46:16;;;;;;;3.27;1.40;;;8.80;99.90;;;;;;5054877;28;20552;-64
2021/01/21 04:48:42;;;;;;;1.90;1.23;;;8.70;99.90;;;;;;5054727;28;20181;-66
2021/01/21 04:51:10;;;;;;;3.28;1.48;;;8.80;99.90;;;;;;5054372;28;20193;-67
2021/01/21 04:53:39;;;;;;;2.10;1.50;;;8.90;99.90;;;;;;5054402;28;20208;-65
2021/01/21 04:56:07;;;;;;;2.00;1.05;;;8.90;99.90;;;;;;5053702;28;20193;-66
2021/01/21 04:58:40;;;;;;;2.15;1.30;;;8.90;99.90;;;;;;5054503;28;20570;-63
2021/01/21 05:01:06;;;;;;;1.90;1.30;;;8.90;99.90;;;;;;5054365;28;20192;-62
2021/01/21 05:03:33;;;;;;;1.60;1.35;;;8.90;99.90;;;;;;5054182;28;20177;-63
2021/01/21 05:05:59;;;;;;;2.55;1.23;;;8.90;99.90;;;;;;5054688;28;20185;-66
2021/01/21 05:08:24;;;;;;;1.58;1.45;;;9.00;99.90;;;;;;5054669;28;20178;-66
2021/01/21 05:10:51;;;;;;;4.30;1.80;;;9.10;81.00;;;;;;5054385;28;20235;-66
2021/01/21 05:13:18;;;;;;;1.58;1.48;;;9.10;52.60;;;;;;5054455;28;20551;-67
2021/01/21 05:15:44;;;;;;;1.45;1.35;;;9.10;35.60;;;;;;5054852;28;20248;-67
2021/01/21 05:18:13;;;;;;;3.63;1.40;;;9.10;1.00;;;;;;5054078;28;20181;-67
2021/01/21 05:20:46;;;;;;;2.45;1.10;;;9.20;1.00;;;;;;5055829;28;20201;-64
2021/01/21 05:23:13;;;;;;;3.70;1.30;;;9.10;1.00;;;;;;5056157;28;20239;-64
2021/01/21 05:25:39;;;;;;;2.28;1.65;;;9.20;1.00;;;;;;5054270;28;20240;-64
2021/01/21 05:28:06;;;;;;;2.93;2.10;;;9.20;1.00;;;;;;5053080;28;20215;-65
2021/01/21 05:30:33;;;;;;;1.20;1.10;;;9.20;1.00;;;;;;5053967;28;20188;-65
2021/01/21 05:32:59;;;;;;;2.38;1.17;;;9.30;1.00;;;;;;5053941;28;20295;-63
2021/01/21 05:35:25;;;;;;;2.95;1.30;;;9.30;1.00;;;;;;5054014;28;20178;-64
2021/01/21 05:37:55;;;;;;;5.65;2.30;;;9.30;1.00;;;;;;5054015;28;20474;-64
2021/01/21 05:40:28;;;;;;;2.72;1.35;;;9.30;1.00;;;;;;5053853;28;20180;-64
2021/01/21 05:42:55;;;;;;;1.75;1.17;;;9.30;1.00;;;;;;5053909;28;20299;-63
2021/01/21 05:45:23;;;;;;;3.58;1.15;;;9.30;1.00;;;;;;5053476;28;20182;-63
2021/01/21 05:47:54;;;;;;;2.40;1.50;;;9.30;1.00;;;;;;5053695;28;20219;-66
2021/01/21 05:50:21;;;;;;;2.67;1.20;;;9.30;1.00;;;;;;5053701;28;20639;-66
2021/01/21 05:52:46;;;;;;;1.40;1.00;;;9.30;1.00;;;;;;5052989;28;20210;-65
2021/01/21 05:55:12;;;;;;;2.00;1.60;;;9.40;1.00;;;;;;5052391;28;20184;-65
2021/01/21 05:57:38;;;;;;;4.33;1.60;;;9.30;1.00;;;;;;5053470;28;20633;-64
2021/01/21 06:00:05;;;;;;;3.60;2.20;;;9.40;1.00;;;;;;5069244;28;20206;-65
2021/01/21 06:02:30;;;;;;;2.58;1.65;;;9.40;1.00;;;;;;5053363;28;20468;-65
2021/01/21 06:04:59;;;;;;;1.10;1.00;;;9.40;1.00;;;;;;5053272;28;20548;-67
2021/01/21 06:07:30;;;;;;;2.08;1.20;;;9.40;1.00;;;;;;5053973;28;20186;-67
2021/01/21 06:09:58;;;;;;;2.15;1.15;;;9.60;1.00;;;;;;5052342;28;20641;-66
2021/01/21 06:12:27;;;;;;;2.72;1.35;;;9.60;1.00;;;;;;5053290;28;20241;-65
2021/01/21 06:15:00;;;;;;;2.42;1.55;;;9.70;1.00;;;;;;5053209;28;20198;-64
2021/01/21 06:17:27;;;;;;;2.08;1.30;;;9.80;1.00;;;;;;5053453;28;20212;-63
2021/01/21 06:19:53;;;;;;;1.75;1.00;;;9.80;1.00;;;;;;5052709;28;20181;-64
2021/01/21 06:22:28;;;;;;;3.50;1.27;;;9.80;1.00;;;;;;5054023;28;20247;-64
2021/01/21 06:24:58;;;;;;;3.65;1.15;;;9.80;1.00;;;;;;5053688;28;20640;-64
2021/01/21 06:27:26;;;;;;;2.22;1.35;;;9.80;1.00;;;;;;5054118;28;20185;-63
2021/01/21 06:29:55;;;;;;;1.92;1.65;;;9.80;1.00;;;;;;5053663;28;20219;-64
2021/01/21 06:32:27;;;;;;;1.92;1.52;;;9.80;1.00;;;;;;5053649;28;20300;-65
2021/01/21 06:34:55;;;;;;;2.30;1.27;;;9.80;1.00;;;;;;5052407;28;20193;-64
2021/01/21 06:37:21;;;;;;;2.47;1.20;;;9.80;1.00;;;;;;5053445;28;20198;-65
2021/01/21 06:40:00;;;;;;;1.70;0.82;;;9.80;1.00;;;;;;5053541;28;20193;-65
2021/01/21 06:42:34;;;;;;;2.05;1.02;;;9.80;1.00;;;;;;5053505;28;20201;-65
2021/01/21 06:45:01;;;;;;;2.50;1.30;;;9.90;1.00;;;;;;5052891;28;20622;-65
2021/01/21 06:47:28;;;;;;;1.60;1.40;;;9.90;1.00;;;;;;5053075;28;20216;-65
2021/01/21 06:49:56;;;;;;;1.70;1.30;;;9.90;1.00;;;;;;5053129;28;20200;-63
2021/01/21 06:52:24;;;;;;;2.70;1.50;;;10.00;1.00;;;;;;5053462;28;20206;-63
2021/01/21 06:54:51;;;;;;;2.25;1.30;;;10.10;1.00;;;;;;5052880;28;20592;-63
2021/01/21 06:57:35;;;;;;;2.08;1.30;;;10.10;1.00;;;;;;5052125;28;20530;-68
2021/01/21 07:00:07;;;;;;;1.15;0.90;;;10.00;1.00;;;;;;5052807;28;20250;-66
2021/01/21 07:02:42;;;;;;;1.50;1.17;;;10.00;1.00;;;;;;5052830;28;20625;-67
2021/01/21 07:05:22;;;;;;;2.28;1.20;;;10.00;1.00;;;;;;5054645;28;20186;-67
2021/01/21 07:07:56;;;;;;;1.98;1.10;;;10.00;1.00;;;;;;5056749;28;20188;-66
2021/01/21 07:10:30;;;;;;;1.45;0.95;;;10.10;1.00;;;;;;5074212;28;20229;-65
2021/01/21 07:12:57;;;;;;;1.95;1.15;;;10.00;1.00;;;;;;5076033;28;20213;-65
2021/01/21 07:15:36;;;;;;;1.83;1.27;;;9.90;1.00;;;;;;5075469;28;20182;-65
2021/01/21 07:18:06;;;;;;;1.65;0.95;;;10.00;1.00;;;;;;5075726;28;20182;-65
2021/01/21 07:20:33;;;;;;;2.65;2.15;;;10.00;1.00;;;;;;5076087;28;20179;-66
2021/01/21 07:23:06;;;;;;;1.85;1.60;;;10.10;1.00;;;;;;5074479;28;20581;-66
2021/01/21 07:25:36;;;;;;;2.03;1.35;;;10.10;1.00;;;;;;5076097;28;20202;-66
2021/01/21 07:28:09;;;;;;;1.77;0.90;;;10.20;1.00;;;;;;5075775;28;20230;-66
2021/01/21 07:30:38;;;;;;;1.45;1.30;;;10.30;1.00;;;;;;5075226;28;20184;-63
2021/01/21 07:33:26;;;;;;;4.05;1.13;;;10.40;1.00;;;;;;5074811;28;20201;-65
2021/01/21 07:35:52;;;;;;;1.40;1.13;;;10.60;1.00;;;;;;5076070;28;20217;-65
2021/01/21 07:38:50;;;;;;;2.42;1.65;;;10.90;99.90;;;;;;5075978;28;20173;-64
2021/01/21 07:41:41;;;;;;;1.25;0.90;;;11.00;99.90;;;;;;5041645;28;20530;-64
2021/01/21 07:44:06;;;;;;;2.40;1.10;;;11.00;99.90;;;;;;5075409;28;20211;-64
2021/01/21 07:46:52;;;;;;;1.80;1.10;;;11.10;99.90;;;;;;5075826;28;20220;-64
2021/01/21 07:49:28;;;;;;;2.67;1.15;;;11.20;99.90;;;;;;5074755;28;20258;-64
2021/01/21 07:52:05;;;;;;;1.50;0.73;;;11.40;99.90;;;;;;5076018;28;20189;-64
2021/01/21 07:54:52;;;;;;;1.35;0.60;;;11.30;1.00;;;;;;5075815;28;20182;-66
2021/01/21 07:57:21;;;;;;;0.60;0.50;;;10.70;99.90;;;;;;5076447;28;20215;-67
2021/01/21 07:59:57;;;;;;;1.08;0.60;;;9.50;99.90;;;;;;5075465;28;20239;-66
2021/01/21 08:02:22;;;;;;;1.45;0.60;;;8.90;99.90;;;;;;5075290;28;20208;-66
2021/01/21 08:04:58;;;;;;;0.80;0.60;;;8.50;1.00;;;;;;5074833;28;20264;-66
2021/01/21 08:07:24;;;;;;;1.27;0.60;;;8.20;1.00;;;;;;5075093;28;20264;-66
2021/01/21 08:10:06;;;;;;;0.60;0.40;;;8.00;99.90;;;;;;5075099;28;20657;-66
2021/01/21 08:12:31;;;;;;;1.25;0.75;;;8.00;99.90;;;;;;5072738;28;20204;-66
2021/01/21 08:14:58;;;;;;;1.67;0.70;;;8.00;1.00;;;;;;5074969;28;20253;-67
2021/01/21 08:17:23;;;;;;;2.40;0.68;;;8.00;99.90;;;;;;5074802;28;20431;-66
2021/01/21 08:19:49;;;;;;;2.27;0.90;;;8.00;1.00;;;;;;5075315;28;20754;-65
2021/01/21 08:22:14;;;;;;;0.83;0.53;;;8.00;31.80;;;;;;5075089;28;20187;-66
2021/01/21 08:25:00;;;;;;;1.70;0.40;;;7.90;1.00;;;;;;5075136;28;20568;-66
2021/01/21 08:28:01;;;;;;;0.77;0.50;;;7.90;1.00;;;;;;5074996;28;20177;-66
2021/01/21 08:30:28;;;;;;;0.70;0.47;;;7.80;92.60;;;;;;5053228;28;20188;-67
2021/01/21 08:33:13;;;;;;;1.77;0.65;;;7.90;1.00;;;;;;5070289;28;20669;-65
2021/01/21 08:35:44;;;;;;;1.63;0.60;;;8.10;1.00;;;;;;5074927;28;20181;-65
2021/01/21 08:38:12;;;;;;;2.92;0.75;;;8.00;99.90;;;;;;5074214;28;20177;-64
2021/01/21 08:40:39;;;;;;;0.82;0.30;;;7.90;1.00;;;;;;5073632;28;20586;-65
2021/01/21 08:43:07;;;;;;;3.28;0.63;;;7.90;8.20;;;;;;5073328;28;20197;-65
2021/01/21 08:45:33;;;;;;;4.63;1.23;;;7.90;1.00;;;;;;5073803;28;20525;-64
2021/01/21 08:47:58;;;;;;;2.03;1.33;;;8.00;1.00;;;;;;5073423;28;20176;-64
2021/01/21 08:50:37;;;;;;;0.67;0.47;;;8.10;99.90;;;;;;5074400;28;20195;-64
2021/01/21 08:53:09;;;;;;;1.17;0.70;;;8.30;99.90;;;;;;5074172;28;20208;-64
2021/01/21 08:55:40;;;;;;;1.63;0.50;;;8.30;1.00;;;;;;5074368;28;20184;-66
2021/01/21 08:58:06;;;;;;;0.73;0.40;;;8.30;99.90;;;;;;5074282;28;20206;-64
2021/01/21 09:00:34;;;;;;;0.70;0.60;;;8.30;99.90;;;;;;5072956;28;20208;-65
2021/01/21 09:03:00;;;;;;;3.85;1.83;;;8.30;52.30;;;;;;5073046;28;20189;-64
2021/01/21 09:05:26;;;;;;;8.18;2.97;;;8.20;99.90;;;;;;5074283;28;20260;-64
2021/01/21 09:08:01;;;;;;;1.42;0.45;;;8.40;99.90;;;;;;5074086;28;20481;-65
2021/01/21 09:10:36;;;;;;;2.42;0.85;;;8.30;97.60;;;;;;5073080;28;20201;-66
2021/01/21 09:13:02;;;;;;;0.80;0.50;;;8.30;19.00;;;;;;5073368;28;20207;-67
2021/01/21 09:15:27;;;;;;;1.27;0.73;;;8.30;1.00;;;;;;5073389;28;20624;-66
2021/01/21 09:18:05;;;;;;;1.13;0.63;;;8.30;1.00;;;;;;5067901;28;20441;-66
2021/01/21 09:20:32;;;;;;;0.80;0.50;;;8.30;99.90;;;;;;5072546;28;20199;-64
2021/01/21 09:23:20;;;;;;;2.25;0.98;;;8.40;15.40;;;;;;5071092;28;20180;-64
2021/01/21 09:25:47;;;;;;;1.95;0.75;;;8.40;5.10;;;;;;5073268;28;20700;-62
2021/01/21 09:28:13;;;;;;;3.33;1.08;;;8.40;1.00;;;;;;5072182;28;20647;-63
2021/01/21 09:30:40;;;;;;;2.60;1.13;;;8.40;99.90;;;;;;5073790;28;20181;-62
2021/01/21 09:33:06;;;;;;;1.70;0.82;;;8.50;99.90;;;;;;5073015;28;20562;-65
2021/01/21 09:35:31;;;;;;;1.47;1.00;;;8.60;99.90;;;;;;5073930;28;20275;-64
2021/01/21 09:37:59;;;;;;;2.73;1.10;;;8.60;21.60;;;;;;5073667;28;20630;-64
2021/01/21 09:40:30;;;;;;;2.63;0.85;;;8.70;28.30;;;;;;5073891;28;20181;-67
2021/01/21 09:42:58;;;;;;;2.60;0.88;;;8.70;1.00;;;;;;5071791;28;20195;-66
2021/01/21 09:45:24;;;;;;;2.97;1.00;;;8.70;1.00;;;;;;5072323;28;20193;-62
2021/01/21 09:47:50;;;;;;;6.38;3.05;;;8.70;1.00;;;;;;5073609;28;20184;-67
2021/01/21 09:50:17;;;;;;;1.13;0.70;;;8.60;1.00;;;;;;5073870;28;20190;-67
2021/01/21 09:52:42;;;;;;;5.07;0.93;;;8.60;1.00;;;;;;5074006;28;20204;-64
2021/01/21 09:55:11;;;;;;;3.97;0.97;;;8.40;1.00;;;;;;5075625;28;20184;-63
2021/01/21 09:57:39;;;;;;;3.05;1.08;;;8.30;99.90;;;;;;5076094;28;20181;-66
2021/01/21 10:00:05;;;;;;;2.40;1.33;;;8.30;99.90;;;;;;5075933;28;20516;-65
2021/01/21 10:02:31;;;;;;;1.13;0.90;;;8.20;99.90;;;;;;5078475;28;20587;-64
2021/01/21 10:04:56;;;;;;;1.10;0.83;;;8.20;99.90;;;;;;5078820;28;20185;-69
2021/01/21 10:07:22;;;;;;;4.43;0.90;;;8.10;99.90;;;;;;5078744;28;20172;-67
2021/01/21 10:09:48;;;;;;;3.70;1.00;;;8.20;99.90;;;;;;5077922;28;20184;-67
2021/01/21 10:12:13;;;;;;;2.60;1.10;;;8.10;99.90;;;;;;5077704;28;20216;-67
2021/01/21 10:14:39;;;;;;;1.10;1.00;;;8.00;99.90;;;;;;5079494;28;20618;-66
2021/01/21 10:17:07;;;;;;;1.93;1.30;;;8.10;99.90;;;;;;5079615;28;20268;-64
2021/01/21 10:19:33;;;;;;;5.85;1.08;;;7.90;99.90;;;;;;5079223;28;20621;-69
2021/01/21 10:21:59;;;;;;;1.52;0.93;;;8.00;99.90;;;;;;5080629;28;20210;-67
2021/01/21 10:24:26;;;;;;;1.60;1.40;;;8.00;99.90;;;;;;5080183;28;20188;-65
2021/01/21 10:26:51;;;;;;;3.50;1.13;;;8.00;99.90;;;;;;5082415;28;20219;-66
2021/01/21 10:29:18;;;;;;;2.50;0.90;;;8.20;59.30;;;;;;5079420;28;20617;-65
2021/01/21 10:31:44;;;;;;;1.77;0.80;;;8.30;1.00;;;;;;5076743;28;20294;-65
2021/01/21 10:34:10;;;;;;;1.53;1.13;;;8.30;1.00;;;;;;5074888;28;20177;-66
2021/01/21 10:36:35;;;;;;;1.80;0.93;;;8.30;99.90;;;;;;5075799;28;20195;-67
2021/01/21 10:39:03;;;;;;;1.30;0.87;;;8.40;99.90;;;;;;5075581;28;20602;-64
2021/01/21 10:41:29;;;;;;;2.33;1.02;;;8.50;1.00;;;;;;5079021;28;20239;-64
2021/01/21 10:43:54;;;;;;;4.93;1.53;;;8.50;1.00;;;;;;5080420;28;20188;-65
2021/01/21 10:46:23;;;;;;;1.23;1.00;;;8.60;1.00;;;;;;5079059;28;20176;-66
2021/01/21 10:48:50;;;;;;;2.83;1.33;;;8.60;1.00;;;;;;5061664;28;20323;-65
2021/01/21 10:51:19;;;;;;;2.63;0.88;;;8.60;1.00;;;;;;5057963;28;20195;-65
2021/01/21 10:53:46;;;;;;;2.05;1.25;;;8.70;1.00;;;;;;5058031;28;20170;-66
2021/01/21 10:56:11;;;;;;;1.15;0.90;;;8.90;1.00;;;;;;5057527;28;20182;-66
2021/01/21 10:58:37;;;;;;;2.90;0.80;;;9.10;99.90;;;;;;5057724;28;20606;-66
2021/01/21 11:01:02;;;;;;;2.07;0.70;;;9.20;99.90;;;;;;5066921;28;20643;-65
2021/01/21 11:03:28;;;;;;;5.53;1.30;;;9.00;99.90;;;;;;5077361;28;20205;-64
2021/01/21 11:05:53;;;;;;;1.77;0.83;;;8.80;99.90;;;;;;5077364;28;20573;-64
2021/01/21 11:08:19;;;;;;;3.33;1.00;;;8.80;99.90;;;;;;5077184;28;20634;-64
2021/01/21 11:10:45;;;;;;;2.50;0.80;;;8.70;99.90;;;;;;5076475;28;20184;-64
2021/01/21 11:13:17;;;;;;;4.00;1.20;;;8.80;99.90;;;;;;5077322;28;20205;-67
2021/01/21 11:15:46;;;;;;;4.75;1.45;;;8.90;99.90;;;;;;5078391;28;20209;-65
2021/01/21 11:18:12;;;;;;;3.75;1.60;;;8.90;3.80;;;;;;5077828;28;20168;-67
2021/01/21 11:20:39;;;;;;;1.80;1.00;;;8.90;99.90;;;;;;5077337;28;20184;-68
2021/01/21 11:23:06;;;;;;;6.72;1.50;;;8.70;57.60;;;;;;5092390;28;20829;-67
2021/01/21 11:25:31;;;;;;;2.90;1.17;;;8.60;99.90;;;;;;5075915;28;20208;-67
2021/01/21 11:27:57;;;;;;;1.50;0.90;;;8.80;97.50;;;;;;5074726;28;20613;-64
2021/01/21 11:30:23;;;;;;;2.87;1.10;;;8.70;1.00;;;;;;5073462;28;20451;-69
2021/01/21 11:32:49;;;;;;;1.20;1.03;;;8.70;1.00;;;;;;5074971;28;20197;-67
2021/01/21 11:35:14;;;;;;;2.97;1.30;;;8.70;1.00;;;;;;5059288;28;20739;-65
2021/01/21 11:37:40;;;;;;;3.63;1.43;;;8.90;1.00;;;;;;5070131;28;20190;-65
2021/01/21 11:40:06;;;;;;;1.50;0.93;;;9.10;1.00;;;;;;5074278;28;20185;-67
2021/01/21 11:42:32;;;;;;;2.83;1.20;;;9.30;1.00;;;;;;5074960;28;20652;-66
2021/01/21 11:45:11;;;;;;;2.47;0.80;;;9.20;1.00;;;;;;5066643;28;20190;-66
2021/01/21 11:47:52;;;;;;;2.97;1.27;;;9.10;1.00;;;;;;5081199;28;20189;-66
2021/01/21 11:50:22;;;;;;;1.30;0.80;;;9.10;1.00;;;;;;5076035;28;20181;-63
2021/01/21 11:52:47;;;;;;;1.98;1.08;;;9.10;99.90;;;;;;5075109;28;20295;-63
2021/01/21 11:55:13;;;;;;;3.67;1.70;;;9.00;99.90;;;;;;5075857;28;20255;-65
2021/01/21 11:57:39;;;;;;;1.40;0.83;;;9.10;99.90;;;;;;5074988;28;20212;-65
2021/01/21 12:00:06;;;;;;;2.00;1.30;;;9.10;99.90;;;;;;5075531;28;20435;-66
2021/01/21 12:02:32;;;;;;;1.10;1.00;;;9.20;99.90;;;;;;5075509;28;20192;-66
2021/01/21 12:04:58;;;;;;;2.97;1.27;;;9.10;99.90;;;;;;5076582;28;20208;-66
2021/01/21 12:07:24;;;;;;;2.20;1.10;;;9.00;99.90;;;;;;5076599;28;20183;-68
2021/01/21 12:09:50;;;;;;;3.63;2.07;;;8.90;99.90;;;;;;5076208;28;20184;-66
2021/01/21 12:12:18;;;;;;;4.07;1.90;;;9.00;99.90;;;;;;5075869;28;20284;-65
2021/01/21 12:14:44;;;;;;;4.15;2.42;;;8.90;99.90;;;;;;5074967;28;20493;-64
2021/01/21 12:17:10;;;;;;;5.70;1.30;;;9.00;99.90;;;;;;5075539;28;20180;-64
2021/01/21 12:19:35;;;;;;;4.97;1.70;;;8.90;99.90;;;;;;5074752;28;20438;-63
2021/01/21 12:22:01;;;;;;;3.33;1.30;;;9.00;99.90;;;;;;5075810;28;20176;-63
2021/01/21 12:24:27;;;;;;;3.33;1.50;;;9.10;99.90;;;;;;5075258;28;20173;-63
2021/01/21 12:26:52;;;;;;;2.73;1.27;;;9.20;99.90;;;;;;5074455;28;20181;-64
2021/01/21 12:29:18;;;;;;;1.33;0.70;;;9.20;99.90;;;;;;5075516;28;20212;-62
2021/01/21 12:31:44;;;;;;;1.33;0.80;;;9.10;99.90;;;;;;5074349;28;20214;-63
2021/01/21 12:34:10;;;;;;;1.60;1.20;;;9.00;99.90;;;;;;5073807;28;20525;-64
2021/01/21 12:36:35;;;;;;;1.90;0.90;;;9.00;99.90;;;;;;5075422;28;20768;-64
2021/01/21 12:39:02;;;;;;;5.07;2.23;;;8.80;99.90;;;;;;5075711;28;20177;-63
2021/01/21 12:41:28;;;;;;;1.88;1.08;;;8.80;99.90;;;;;;5074371;28;20574;-65
2021/01/21 12:43:54;;;;;;;1.60;1.00;;;8.90;99.90;;;;;;5074414;28;20216;-65
2021/01/21 12:46:19;;;;;;;3.50;0.93;;;8.90;99.90;;;;;;5075339;28;20208;-68
2021/01/21 12:48:47;;;;;;;2.70;1.13;;;8.90;99.90;;;;;;5074039;28;20245;-68
2021/01/21 12:51:12;;;;;;;3.60;0.85;;;9.00;99.90;;;;;;5073840;28;20177;-69
2021/01/21 12:53:38;;;;;;;2.50;1.27;;;9.00;99.90;;;;;;5074941;28;20288;-68
2021/01/21 12:56:04;;;;;;;3.77;1.27;;;8.80;99.90;;;;;;5074634;28;20488;-63
2021/01/21 12:58:30;;;;;;;4.43;1.55;;;8.90;99.90;;;;;;5073263;28;20948;-64
2021/01/21 13:00:56;;;;;;;7.10;2.40;;;8.90;99.90;;;;;;5077120;28;20209;-68
2021/01/21 13:03:22;;;;;;;3.17;0.90;;;8.90;99.90;;;;;;5079837;28;20445;-68
2021/01/21 13:05:48;;;;;;;4.67;1.67;;;9.00;99.90;;;;;;5077757;28;20785;-67
2021/01/21 13:08:14;;;;;;;3.17;1.13;;;9.30;99.90;;;;;;5075056;28;20181;-64